Time;durP1;ratioP1;P1;durP2;ratioP2;P2;SDS_P1;SDS_P2;PMS_P1;PMS_P2;Temp;Humidity;BMP_temperature;BMP_pressure;BME280_temperature;BME280_humidity;BME280_pressure;Samples;Min_cycle;Max_cycle;Signal;HPM_P1;HPM_P2
2022/04/12 00:01:50;;;;;;;10.93;6.18;;;;;;;1.76;85.22;98645.97;4163368;28;20040;-72
2022/04/12 00:03:50;;;;;;;10.02;6.13;;;;;;;1.69;86.05;98649.16;4159139;28;20575;-72
2022/04/12 00:05:51;;;;;;;8.02;5.03;;;;;;;1.67;84.67;98644.03;4160074;28;20460;-72
2022/04/12 00:07:52;;;;;;;6.03;5.05;;;;;;;1.72;83.46;98647.72;4159964;28;20758;-71
2022/04/12 00:09:52;;;;;;;7.22;4.72;;;;;;;1.70;83.07;98639.84;4155621;28;20067;-72
2022/04/12 00:11:52;;;;;;;8.88;5.10;;;;;;;1.68;82.77;98631.19;4162889;28;20543;-72
2022/04/12 00:13:53;;;;;;;7.07;4.65;;;;;;;1.72;82.03;98631.34;4163535;28;20064;-72
2022/04/12 00:15:53;;;;;;;8.20;5.55;;;;;;;1.74;81.22;98626.38;4161744;28;20103;-72
2022/04/12 00:20:13;;;;;;;10.45;5.35;;;;;;;1.69;81.09;98611.78;4158358;28;20049;-72
2022/04/12 00:22:13;;;;;;;8.05;5.35;;;;;;;1.68;80.35;98610.16;4163787;28;20033;-72
2022/04/12 00:24:13;;;;;;;10.15;5.50;;;;;;;1.72;80.72;98609.53;4156016;28;20033;-72
2022/04/12 00:26:14;;;;;;;6.72;4.80;;;;;;;1.73;81.02;98609.19;4164762;28;20033;-72
2022/04/12 00:28:15;;;;;;;8.52;4.90;;;;;;;1.73;79.79;98603.75;4167000;28;20033;-72
2022/04/12 00:30:18;;;;;;;9.25;5.05;;;;;;;1.69;81.13;98608.25;4163347;28;20124;-72
2022/04/12 00:32:19;;;;;;;9.35;5.55;;;;;;;1.59;81.48;98603.09;4164301;28;20181;-72
2022/04/12 00:34:19;;;;;;;10.57;6.15;;;;;;;1.56;81.24;98596.31;4163867;28;20456;-72
2022/04/12 00:36:19;;;;;;;9.75;6.15;;;;;;;1.56;81.25;98599.03;4163655;28;20037;-72
2022/04/12 00:38:22;;;;;;;8.57;4.85;;;;;;;1.57;80.86;98599.84;4164247;28;20033;-71
2022/04/12 00:40:26;;;;;;;7.32;4.70;;;;;;;1.63;79.69;98588.47;4162436;28;20127;-72
2022/04/12 00:42:27;;;;;;;10.10;5.40;;;;;;;1.62;80.82;98591.53;4169037;28;20073;-72
2022/04/12 00:44:27;;;;;;;6.82;5.75;;;;;;;1.55;82.06;98591.19;4164297;28;20053;-72
2022/04/12 00:46:27;;;;;;;9.77;6.18;;;;;;;1.52;82.17;98589.91;4162090;28;20466;-72
2022/04/12 00:48:29;;;;;;;13.13;6.72;;;;;;;1.49;82.59;98584.25;4164514;28;20744;-72
2022/04/12 00:50:29;;;;;;;10.43;6.50;;;;;;;1.49;81.65;98585.09;4165541;28;20065;-72
2022/04/12 00:52:31;;;;;;;8.00;6.07;;;;;;;1.56;80.63;98584.59;4165543;28;20041;-72
2022/04/12 00:54:33;;;;;;;8.82;5.93;;;;;;;1.56;80.86;98576.41;4160900;28;20041;-72
2022/04/12 00:56:34;;;;;;;7.63;5.30;;;;;;;1.65;80.44;98575.31;4164845;28;20400;-72
2022/04/12 00:58:34;;;;;;;9.70;5.20;;;;;;;1.62;80.89;98566.97;4160477;28;20280;-72
2022/04/12 01:00:36;;;;;;;7.80;5.05;;;;;;;1.54;81.02;98565.84;4158888;28;20076;-72
2022/04/12 01:02:36;;;;;;;7.60;4.47;;;;;;;1.49;80.52;98573.34;4163733;28;20048;-72
2022/04/12 01:04:37;;;;;;;10.05;4.63;;;;;;;1.34;81.37;98559.06;4163358;28;20378;-72
2022/04/12 01:06:37;;;;;;;8.65;5.80;;;;;;;1.34;81.11;98566.44;4163927;28;20041;-72
2022/04/12 01:08:38;;;;;;;8.63;5.00;;;;;;;1.31;81.29;98565.13;4163030;28;20041;-72
2022/04/12 01:10:40;;;;;;;8.38;5.60;;;;;;;1.29;80.45;98559.19;4165347;28;20613;-72
2022/04/12 01:12:41;;;;;;;;;;;;;;;1.20;82.74;98571.16;4166369;28;20038;-72
2022/04/12 01:14:41;;;;;;;8.48;5.10;;;;;;;1.13;81.82;98561.50;4161953;28;20309;-71
2022/04/12 01:16:41;;;;;;;8.48;5.20;;;;;;;1.01;82.44;98550.41;4164857;28;20448;-72
2022/04/12 01:18:42;;;;;;;8.52;5.50;;;;;;;0.93;83.45;98562.06;4158178;28;20116;-72
2022/04/12 01:20:42;;;;;;;6.82;5.32;;;;;;;0.88;83.42;98564.91;4164719;28;20046;-72
2022/04/12 01:23:38;;;;;;;9.75;5.50;;;;;;;0.81;83.81;98570.81;4165819;28;20041;-72
2022/04/12 01:25:39;;;;;;;7.07;4.63;;;;;;;0.75;83.66;98574.00;4178330;28;20217;-72
2022/04/12 01:27:40;;;;;;;8.50;5.40;;;;;;;0.71;83.60;98573.00;4167049;28;20052;-72
2022/04/12 01:29:40;;;;;;;9.63;5.40;;;;;;;0.65;83.17;98569.59;4163074;28;20477;-72
2022/04/12 01:31:40;;;;;;;7.13;4.93;;;;;;;0.66;83.34;98575.81;4159633;28;20048;-72
2022/04/12 01:33:41;;;;;;;7.55;4.95;;;;;;;0.59;83.82;98570.03;4164726;28;20060;-72
2022/04/12 01:35:41;;;;;;;7.45;5.32;;;;;;;0.56;85.57;98577.69;4164002;28;20052;-72
2022/04/12 01:37:42;;;;;;;9.95;5.55;;;;;;;0.54;86.08;98573.69;4160565;28;20052;-72
2022/04/12 01:39:42;;;;;;;6.57;4.82;;;;;;;0.51;86.09;98583.28;4163431;28;20148;-72
2022/04/12 01:41:42;;;;;;;18.83;6.00;;;;;;;0.52;85.83;98575.91;4162887;28;20080;-72
2022/04/12 01:43:43;;;;;;;9.77;5.53;;;;;;;0.54;85.41;98573.69;4164126;28;20674;-72
2022/04/12 01:45:43;;;;;;;8.77;6.30;;;;;;;0.51;85.86;98580.56;4160578;28;20192;-71
2022/04/12 01:47:43;;;;;;;9.55;5.65;;;;;;;0.48;85.96;98577.63;4163405;28;20041;-72
2022/04/12 01:49:44;;;;;;;7.18;4.95;;;;;;;0.40;87.03;98572.94;4157587;28;20034;-72
2022/04/12 01:51:44;;;;;;;10.27;5.50;;;;;;;0.40;87.37;98581.09;4159866;28;20517;-72
2022/04/12 01:53:45;;;;;;;7.45;5.10;;;;;;;0.42;87.61;98578.88;4160336;28;20287;-71
2022/04/12 01:55:46;;;;;;;7.82;5.45;;;;;;;0.44;87.94;98568.50;4158395;28;20076;-72
2022/04/12 01:57:46;;;;;;;10.77;6.00;;;;;;;0.44;86.41;98565.75;4164810;28;20049;-72
2022/04/12 01:59:46;;;;;;;9.38;5.70;;;;;;;0.38;88.22;98561.56;4160312;28;20451;-72
2022/04/12 02:01:47;;;;;;;8.00;5.18;;;;;;;0.38;87.93;98567.00;4160158;28;20873;-72
2022/04/12 02:03:47;;;;;;;10.20;5.35;;;;;;;0.36;88.54;98567.31;4161307;28;20180;-72
2022/04/12 02:05:47;;;;;;;7.95;5.10;;;;;;;0.34;87.43;98566.03;4165848;28;20278;-72
2022/04/12 02:07:47;;;;;;;12.43;5.18;;;;;;;0.31;88.24;98561.97;4163001;28;20156;-72
2022/04/12 02:09:48;;;;;;;7.30;5.40;;;;;;;0.33;88.17;98556.22;4162142;28;20045;-72
2022/04/12 02:11:48;;;;;;;7.35;4.72;;;;;;;0.34;85.21;98557.84;4162521;28;20489;-72
2022/04/12 02:13:48;;;;;;;6.50;5.07;;;;;;;0.33;86.77;98558.94;4159698;28;20085;-72
2022/04/12 02:15:49;;;;;;;7.13;4.75;;;;;;;0.29;85.38;98556.03;4161647;28;20041;-72
2022/04/12 02:17:49;;;;;;;8.27;4.53;;;;;;;0.25;86.91;98555.06;4160300;28;20533;-72
2022/04/12 02:19:49;;;;;;;5.57;4.43;;;;;;;0.28;86.79;98546.28;4165831;28;20316;-72
2022/04/12 02:21:50;;;;;;;8.98;4.47;;;;;;;0.25;87.01;98546.91;4164152;28;20374;-72
2022/04/12 02:23:50;;;;;;;7.40;4.78;;;;;;;0.21;87.61;98554.88;4162238;28;20155;-72
2022/04/12 02:25:50;;;;;;;8.80;4.78;;;;;;;0.24;86.62;98550.72;4161642;28;20037;-72
2022/04/12 02:27:50;;;;;;;9.48;4.93;;;;;;;0.28;85.40;98547.06;4159000;28;20397;-72
2022/04/12 02:29:51;;;;;;;9.07;4.47;;;;;;;0.31;85.37;98542.13;4164049;28;20140;-72
2022/04/12 02:31:51;;;;;;;7.07;4.55;;;;;;;0.34;84.58;98547.78;4164721;28;20056;-72
2022/04/12 02:33:51;;;;;;;8.32;4.95;;;;;;;0.30;84.60;98541.31;4159850;28;20055;-72
2022/04/12 02:35:52;;;;;;;9.30;4.72;;;;;;;0.32;84.09;98544.53;4159045;28;20091;-72
2022/04/12 02:37:52;;;;;;;7.32;4.80;;;;;;;0.26;85.24;98554.75;4161448;28;20137;-72
2022/04/12 02:39:53;;;;;;;10.15;5.57;;;;;;;0.23;85.67;98554.56;4160581;28;20681;-72
2022/04/12 02:41:53;;;;;;;9.32;4.78;;;;;;;0.22;85.55;98556.47;4159172;28;20494;-72
2022/04/12 02:43:53;;;;;;;7.78;4.93;;;;;;;0.18;85.27;98555.50;4163726;28;20048;-72
2022/04/12 02:45:54;;;;;;;6.47;4.95;;;;;;;0.16;85.87;98543.28;4164793;28;20048;-72
2022/04/12 02:47:54;;;;;;;7.25;4.88;;;;;;;0.14;86.79;98540.06;4159341;28;20488;-72
2022/04/12 02:49:55;;;;;;;8.45;5.45;;;;;;;0.12;86.90;98537.66;4159089;28;20385;-72
2022/04/12 02:51:55;;;;;;;10.57;6.47;;;;;;;0.10;86.90;98531.72;4161475;28;20132;-72
2022/04/12 02:53:56;;;;;;;13.43;7.00;;;;;;;0.06;87.64;98538.09;4165435;28;20041;-72
2022/04/12 02:55:56;;;;;;;17.40;9.02;;;;;;;0.03;87.44;98538.72;4162608;28;20041;-72
2022/04/12 02:57:57;;;;;;;15.50;8.43;;;;;;;-0.06;88.42;98535.91;4161075;28;20040;-72
2022/04/12 02:59:57;;;;;;;13.57;8.05;;;;;;;-0.10;88.22;98543.88;4164714;28;20083;-72
2022/04/12 03:01:57;;;;;;;13.73;6.97;;;;;;;-0.16;88.02;98547.84;4161473;28;20049;-72
2022/04/12 03:03:58;;;;;;;18.00;7.45;;;;;;;-0.18;88.39;98546.50;4161100;28;20305;-72
2022/04/12 03:05:58;;;;;;;10.48;6.15;;;;;;;-0.20;88.56;98537.88;4160761;28;20191;-72
2022/04/12 03:07:59;;;;;;;10.65;6.35;;;;;;;-0.21;88.33;98537.06;4158334;28;20061;-72
2022/04/12 03:09:59;;;;;;;10.38;6.85;;;;;;;-0.20;88.94;98548.75;4162063;28;20045;-71
2022/04/12 03:11:59;;;;;;;11.48;5.88;;;;;;;-0.18;86.93;98546.50;4163875;28;20072;-71
2022/04/12 03:13:59;;;;;;;11.20;5.97;;;;;;;-0.14;86.07;98531.22;4161646;28;20477;-71
2022/04/12 03:16:00;;;;;;;12.40;6.60;;;;;;;-0.10;86.38;98534.91;4162128;28;20081;-72
2022/04/12 03:18:00;;;;;;;11.00;5.88;;;;;;;-0.12;87.52;98535.22;4160589;28;20049;-72
2022/04/12 03:20:00;;;;;;;11.25;6.20;;;;;;;-0.10;86.71;98543.88;4161871;28;20140;-72
2022/04/12 03:22:01;;;;;;;10.63;5.70;;;;;;;-0.12;86.15;98537.13;4159139;28;20052;-72
2022/04/12 03:24:01;;;;;;;12.23;5.43;;;;;;;-0.15;86.60;98546.72;4158278;28;20041;-72
2022/04/12 03:26:01;;;;;;;10.73;5.63;;;;;;;-0.16;86.79;98547.03;4162575;28;20044;-72
2022/04/12 03:28:02;;;;;;;9.98;6.32;;;;;;;-0.15;86.10;98552.16;4160727;28;20061;-72
2022/04/12 03:30:03;;;;;;;11.75;6.15;;;;;;;-0.14;86.54;98536.66;4161564;28;20036;-72
2022/04/12 03:32:04;;;;;;;10.60;5.60;;;;;;;-0.09;87.18;98540.03;4161999;28;20030;-72
2022/04/12 03:34:04;;;;;;;8.93;5.60;;;;;;;-0.10;86.27;98543.88;4158279;28;20520;-72
2022/04/12 03:36:05;;;;;;;7.32;4.95;;;;;;;-0.09;85.33;98534.59;4164280;28;20029;-72
2022/04/12 03:38:05;;;;;;;8.00;5.55;;;;;;;-0.13;85.31;98544.50;4162186;28;20384;-72
2022/04/12 03:40:06;;;;;;;7.28;5.10;;;;;;;-0.17;86.08;98548.13;4162173;28;20366;-72
2022/04/12 03:42:11;;;;;;;8.43;5.93;;;;;;;-0.26;87.27;98545.31;4160731;28;20020;-72
2022/04/12 03:44:12;;;;;;;7.93;5.32;;;;;;;-0.31;87.63;98540.00;4155239;28;20033;-72
2022/04/12 03:46:12;;;;;;;9.98;5.00;;;;;;;-0.31;86.47;98545.44;4160928;28;20473;-72
2022/04/12 03:48:12;;;;;;;9.20;5.72;;;;;;;-0.34;87.86;98535.97;4160822;28;20024;-72
2022/04/12 03:50:12;;;;;;;8.65;5.85;;;;;;;-0.41;88.67;98542.97;4159133;28;20522;-72
2022/04/12 03:52:13;;;;;;;8.60;6.00;;;;;;;-0.48;89.29;98537.94;4159742;28;20190;-72
2022/04/12 03:54:13;;;;;;;7.07;5.10;;;;;;;-0.52;90.00;98539.63;4160196;28;20107;-72
2022/04/12 03:56:13;;;;;;;7.03;5.80;;;;;;;-0.58;90.79;98533.50;4160724;28;20024;-72
2022/04/12 03:58:19;;;;;;;5.70;5.10;;;;;;;-0.60;90.35;98538.41;4154347;28;20041;-72
2022/04/12 04:00:19;;;;;;;8.25;5.40;;;;;;;-0.62;90.89;98531.69;4162406;28;20037;-72
2022/04/12 04:02:20;;;;;;;7.05;4.85;;;;;;;-0.57;90.53;98528.88;4161891;28;20044;-72
2022/04/12 04:04:21;;;;;;;8.52;5.05;;;;;;;-0.55;89.66;98526.66;4159122;28;20056;-72
2022/04/12 04:06:21;;;;;;;10.70;5.28;;;;;;;-0.56;88.64;98527.75;4162673;28;20140;-72
2022/04/12 04:08:22;;;;;;;11.85;5.13;;;;;;;-0.58;88.55;98536.22;4161259;28;20456;-72
2022/04/12 04:10:22;;;;;;;7.97;5.10;;;;;;;-0.66;90.07;98526.06;4161313;28;20041;-72
2022/04/12 04:12:22;;;;;;;6.30;5.15;;;;;;;-0.68;91.61;98546.47;4161028;28;20380;-72
2022/04/12 04:14:23;;;;;;;9.07;4.90;;;;;;;-0.77;93.38;98549.09;4160629;28;20052;-72
2022/04/12 04:16:23;;;;;;;6.10;3.95;;;;;;;-0.72;90.26;98553.63;4162098;28;20037;-72
2022/04/12 04:18:23;;;;;;;8.43;5.18;;;;;;;-0.78;90.40;98544.78;4158253;28;20339;-72
2022/04/12 04:20:24;;;;;;;5.82;4.53;;;;;;;-0.71;88.40;98557.97;4160749;28;20045;-72
2022/04/12 04:22:24;;;;;;;9.02;4.97;;;;;;;-0.72;89.61;98545.50;4161903;28;20056;-72
2022/04/12 04:24:24;;;;;;;6.65;4.75;;;;;;;-0.76;90.48;98549.91;4159923;28;20370;-72
2022/04/12 04:26:25;;;;;;;10.80;5.50;;;;;;;-0.86;91.66;98548.19;4161529;28;20041;-72
2022/04/12 04:28:29;;;;;;;7.97;5.18;;;;;;;-0.90;91.65;98547.19;4163481;28;20041;-72
2022/04/12 04:30:32;;;;;;;5.70;4.40;;;;;;;-0.91;90.79;98551.00;4162970;28;20048;-72
2022/04/12 04:32:33;;;;;;;9.27;5.18;;;;;;;-0.96;91.15;98549.19;4155625;28;20413;-72
2022/04/12 04:34:33;;;;;;;9.02;4.70;;;;;;;-1.01;92.36;98534.91;4160919;28;20186;-72
2022/04/12 04:36:33;;;;;;;6.18;4.43;;;;;;;-0.97;91.59;98549.50;4161022;28;20448;-72
2022/04/12 04:38:34;;;;;;;6.38;4.47;;;;;;;-0.94;90.78;98551.63;4159096;28;20497;-72
2022/04/12 04:40:34;;;;;;;6.75;4.68;;;;;;;-0.97;90.64;98544.88;4161487;28;20461;-72
2022/04/12 04:42:35;;;;;;;6.95;4.28;;;;;;;-0.98;90.06;98545.19;4161297;28;20383;-71
2022/04/12 04:44:35;;;;;;;8.32;5.35;;;;;;;-0.94;90.63;98551.63;4162536;28;20132;-71
2022/04/12 04:46:35;;;;;;;9.38;4.60;;;;;;;-0.92;90.72;98541.25;4163507;28;20044;-71
2022/04/12 04:48:36;;;;;;;10.15;4.72;;;;;;;-0.91;89.98;98549.13;4160197;28;20132;-71
2022/04/12 04:50:36;;;;;;;8.65;5.32;;;;;;;-0.93;91.13;98551.31;4161732;28;20045;-72
2022/04/12 04:52:37;;;;;;;6.63;4.35;;;;;;;-0.91;90.30;98551.84;4154034;28;20115;-72
2022/04/12 04:54:37;;;;;;;6.57;4.80;;;;;;;-0.90;89.82;98539.06;4161271;28;20149;-72
2022/04/12 04:56:37;;;;;;;6.90;4.40;;;;;;;-0.92;89.64;98542.03;4093079;28;20040;-71
2022/04/12 04:58:38;;;;;;;8.00;5.00;;;;;;;-0.93;90.14;98545.88;4162905;28;20052;-71
2022/04/12 05:00:38;;;;;;;8.65;4.70;;;;;;;-0.91;91.07;98534.69;4162457;28;20045;-71
2022/04/12 05:02:38;;;;;;;9.73;5.00;;;;;;;-0.91;90.87;98540.97;4157572;28;20044;-71
2022/04/12 05:04:38;;;;;;;5.55;4.25;;;;;;;-0.88;90.63;98536.84;4161949;28;20051;-71
2022/04/12 05:06:39;;;;;;;8.70;4.80;;;;;;;-0.88;89.45;98550.41;4161480;28;20112;-71
2022/04/12 05:08:39;;;;;;;9.68;4.90;;;;;;;-0.91;90.48;98551.00;4165467;28;20294;-71
2022/04/12 05:10:40;;;;;;;7.90;4.82;;;;;;;-0.92;91.04;98552.09;4160926;28;20037;-71
2022/04/12 05:12:40;;;;;;;6.72;4.95;;;;;;;-0.92;91.71;98566.50;4167073;28;20045;-71
2022/04/12 05:14:40;;;;;;;7.90;5.05;;;;;;;-0.83;91.79;98571.22;4165612;28;20045;-71
2022/04/12 05:16:41;;;;;;;9.90;5.25;;;;;;;-0.81;90.97;98569.03;4161491;28;20053;-71
2022/04/12 05:18:41;;;;;;;6.22;4.63;;;;;;;-0.77;90.87;98568.13;4165699;28;20048;-71
2022/04/12 05:20:43;;;;;;;9.00;4.45;;;;;;;-0.74;90.86;98575.69;4161836;28;20033;-71
2022/04/12 05:22:44;;;;;;;7.80;4.47;;;;;;;-0.74;91.15;98572.97;4164529;28;20522;-71
2022/04/12 05:24:47;;;;;;;9.15;4.75;;;;;;;-0.69;90.51;98575.56;4166152;28;20041;-72
2022/04/12 05:26:48;;;;;;;7.30;5.50;;;;;;;-0.60;89.08;98572.94;4165615;28;20229;-71
2022/04/12 05:28:48;;;;;;;11.00;4.97;;;;;;;-0.53;88.96;98584.22;4161698;28;20418;-71
2022/04/12 05:30:49;;;;;;;9.02;5.00;;;;;;;-0.50;89.44;98577.38;4162707;28;20481;-71
2022/04/12 05:32:49;;;;;;;11.00;5.13;;;;;;;-0.45;89.08;98580.00;4160539;28;20418;-71
2022/04/12 05:34:49;;;;;;;9.15;5.90;;;;;;;-0.37;88.58;98582.81;4162759;28;20044;-71
2022/04/12 05:36:50;;;;;;;10.30;5.25;;;;;;;-0.31;88.43;98576.16;4162193;28;20044;-72
2022/04/12 05:38:50;;;;;;;10.82;5.60;;;;;;;-0.26;88.07;98577.94;4159762;28;20048;-72
2022/04/12 05:40:50;;;;;;;7.32;5.65;;;;;;;-0.20;88.58;98578.66;4161801;28;20050;-72
2022/04/12 05:42:53;;;;;;;8.25;5.18;;;;;;;-0.16;88.82;98582.38;4167159;28;20045;-72
2022/04/12 05:44:54;;;;;;;10.13;5.30;;;;;;;-0.13;89.07;98585.28;4165415;28;20065;-72
2022/04/12 05:46:55;;;;;;;7.88;5.13;;;;;;;-0.10;89.35;98592.81;4160352;28;20272;-71
2022/04/12 05:48:55;;;;;;;8.68;5.32;;;;;;;-0.04;89.30;98590.81;4163932;28;20045;-71
2022/04/12 05:50:56;;;;;;;9.20;5.40;;;;;;;0.06;89.94;98590.56;4163778;28;20045;-71
2022/04/12 05:52:57;;;;;;;9.48;6.20;;;;;;;0.14;91.24;98589.84;4159971;28;20038;-71
2022/04/12 05:54:57;;;;;;;12.02;7.63;;;;;;;0.25;93.51;98598.59;4157963;28;20073;-71
2022/04/12 05:56:57;;;;;;;13.05;7.20;;;;;;;0.28;93.75;98589.81;4159999;28;20389;-71
2022/04/12 05:58:58;;;;;;;14.10;8.20;;;;;;;0.34;93.18;98596.75;4164082;28;20083;-72
2022/04/12 06:00:58;;;;;;;12.00;8.02;;;;;;;0.37;92.52;98589.88;4160875;28;20050;-72
2022/04/12 06:02:59;;;;;;;13.63;8.02;;;;;;;0.41;90.80;98596.31;4161388;28;20445;-72
2022/04/12 06:04:59;;;;;;;27.88;12.38;;;;;;;0.44;90.67;98595.72;4160004;28;20128;-71
2022/04/12 06:06:59;;;;;;;26.80;12.98;;;;;;;0.49;90.12;98598.28;4162785;28;20045;-71
2022/04/12 06:09:01;;;;;;;28.60;14.40;;;;;;;0.58;89.59;98599.19;4162431;28;20045;-71
2022/04/12 06:11:01;;;;;;;26.98;12.65;;;;;;;0.68;88.86;98598.94;4158167;28;20048;-71
2022/04/12 06:13:01;;;;;;;19.55;11.18;;;;;;;0.76;88.40;98597.38;4165396;28;20069;-71
2022/04/12 06:15:03;;;;;;;12.63;7.72;;;;;;;0.86;88.29;98610.75;4164450;28;20544;-71
2022/04/12 06:17:03;;;;;;;11.85;6.90;;;;;;;0.95;88.04;98599.91;4160468;28;20132;-71
2022/04/12 06:19:03;;;;;;;13.05;8.00;;;;;;;1.04;85.32;98608.91;4162641;28;20049;-71
2022/04/12 06:21:04;;;;;;;13.88;7.55;;;;;;;1.16;84.00;98602.88;4162920;28;20458;-71
2022/04/12 06:23:04;;;;;;;13.25;6.97;;;;;;;1.25;83.58;98598.31;4163983;28;20400;-71
2022/04/12 06:25:06;;;;;;;9.07;5.97;;;;;;;1.34;83.84;98591.75;4162329;28;20127;-71
2022/04/12 06:27:06;;;;;;;11.38;6.60;;;;;;;1.44;83.86;98598.84;4161478;28;20339;-71
2022/04/12 06:29:07;;;;;;;11.57;6.25;;;;;;;1.55;83.05;98593.91;4160772;28;20393;-71
2022/04/12 06:31:07;;;;;;;10.13;5.57;;;;;;;1.65;82.85;98585.44;4162258;28;20053;-71
2022/04/12 06:33:07;;;;;;;7.75;5.45;;;;;;;1.72;82.03;98593.97;4157460;28;20088;-72
2022/04/12 06:35:09;;;;;;;9.82;5.65;;;;;;;1.83;81.69;98584.38;4163758;28;20431;-72
2022/04/12 06:37:09;;;;;;;10.43;5.95;;;;;;;1.92;82.81;98592.56;4159478;28;20057;-72
2022/04/12 06:39:10;;;;;;;7.72;5.38;;;;;;;2.01;83.29;98593.38;4161785;28;20037;-72
2022/04/12 06:41:11;;;;;;;9.18;5.68;;;;;;;2.20;80.98;98584.91;4162285;28;20477;-72
2022/04/12 06:43:12;;;;;;;13.18;6.03;;;;;;;2.40;80.69;98578.81;4162307;28;20069;-72
2022/04/12 06:45:13;;;;;;;7.80;5.55;;;;;;;2.50;83.38;98581.22;4162026;28;20564;-72
2022/04/12 06:47:16;;;;;;;10.77;5.53;;;;;;;2.66;81.07;98584.25;4160910;28;20072;-72
2022/04/12 06:49:17;;;;;;;8.88;5.65;;;;;;;2.75;81.27;98578.78;4161613;28;20046;-72
2022/04/12 06:51:17;;;;;;;10.52;6.03;;;;;;;2.86;85.07;98571.84;4161631;28;20048;-72
2022/04/12 06:53:17;;;;;;;9.35;5.07;;;;;;;2.97;86.20;98577.75;4163003;28;20665;-72
2022/04/12 06:55:18;;;;;;;9.57;5.93;;;;;;;3.08;81.80;98574.34;4163286;28;20120;-72
2022/04/12 06:57:18;;;;;;;7.00;5.18;;;;;;;3.23;83.23;98566.75;4158282;28;20049;-72
2022/04/12 06:59:18;;;;;;;9.45;5.70;;;;;;;3.43;82.45;98559.75;4166319;28;20110;-72
2022/04/12 07:01:19;;;;;;;8.98;5.60;;;;;;;3.53;82.32;98560.16;4161692;28;20049;-72
2022/04/12 07:03:20;;;;;;;10.80;6.10;;;;;;;3.70;87.70;98562.00;4163512;28;20132;-72
2022/04/12 07:05:21;;;;;;;8.10;5.40;;;;;;;3.91;84.72;98560.13;4165031;28;20196;-72
2022/04/12 07:07:21;;;;;;;7.25;5.43;;;;;;;4.12;82.21;98564.81;4161368;28;20037;-72
2022/04/12 07:09:27;;;;;;;10.18;5.43;;;;;;;4.29;81.97;98570.16;4161540;28;20378;-72
2022/04/12 07:11:27;;;;;;;12.40;5.40;;;;;;;4.42;83.15;98568.28;4160416;28;20104;-72
2022/04/12 07:13:27;;;;;;;6.95;5.70;;;;;;;4.59;83.95;98570.88;4161500;28;20049;-72
2022/04/12 07:15:28;;;;;;;10.55;5.90;;;;;;;4.73;83.39;98571.41;4161263;28;20045;-72
2022/04/12 07:17:28;;;;;;;7.95;5.00;;;;;;;4.83;78.96;98564.69;4162405;28;20036;-72
2022/04/12 07:19:29;;;;;;;7.70;5.25;;;;;;;4.97;80.77;98567.94;4159575;28;20041;-72
2022/04/12 07:21:30;;;;;;;8.32;5.88;;;;;;;5.08;78.69;98574.56;4163520;28;20559;-72
2022/04/12 07:23:31;;;;;;;9.32;5.68;;;;;;;5.30;80.62;98573.38;4161863;28;20049;-72
2022/04/12 07:25:31;;;;;;;8.82;5.07;;;;;;;5.54;79.15;98563.53;4157949;28;20161;-72
2022/04/12 07:27:33;;;;;;;10.35;5.80;;;;;;;5.74;79.89;98564.59;4165585;28;20455;-72
2022/04/12 07:29:34;;;;;;;8.45;6.63;;;;;;;5.92;78.89;98557.72;4160043;28;20041;-72
2022/04/12 07:31:35;;;;;;;11.52;5.90;;;;;;;6.16;78.43;98556.91;4162870;28;20428;-72
2022/04/12 07:33:35;;;;;;;10.35;5.50;;;;;;;6.40;78.06;98559.56;4159411;28;20033;-72
2022/04/12 07:35:35;;;;;;;12.68;5.43;;;;;;;6.64;75.19;98557.91;4162726;28;20037;-73
2022/04/12 07:37:36;;;;;;;9.35;5.93;;;;;;;6.88;75.46;98571.53;4157678;28;20038;-72
2022/04/12 07:39:36;;;;;;;7.93;4.88;;;;;;;7.07;73.64;98565.34;4162409;28;20068;-72
2022/04/12 07:41:37;;;;;;;8.13;5.47;;;;;;;7.29;72.07;98564.78;4160267;28;20044;-72
2022/04/12 07:43:37;;;;;;;6.13;5.00;;;;;;;7.40;72.00;98559.53;4160937;28;20049;-72
2022/04/12 07:45:38;;;;;;;7.85;5.25;;;;;;;7.53;72.39;98565.72;4161096;28;20358;-72
2022/04/12 07:47:38;;;;;;;8.52;6.22;;;;;;;7.73;71.46;98561.13;4160140;28;20042;-72
2022/04/12 07:49:38;;;;;;;9.50;5.75;;;;;;;7.88;70.15;98558.34;4162283;28;20201;-72
2022/04/12 07:51:39;;;;;;;9.18;5.07;;;;;;;7.99;70.56;98568.81;4162718;28;20037;-72
2022/04/12 07:53:40;;;;;;;8.05;5.53;;;;;;;8.11;70.98;98561.22;4158760;28;20076;-72
2022/04/12 07:55:40;;;;;;;8.80;5.03;;;;;;;8.23;68.76;98554.00;4160019;28;20038;-72
2022/04/12 07:57:40;;;;;;;6.90;5.00;;;;;;;8.36;68.31;98555.50;4162238;28;20044;-72
2022/04/12 07:59:41;;;;;;;7.20;5.07;;;;;;;8.43;66.74;98552.88;4159243;28;20053;-72
2022/04/12 08:01:41;;;;;;;6.03;4.88;;;;;;;8.54;68.46;98542.88;4162463;28;20135;-72
2022/04/12 08:03:41;;;;;;;7.95;5.60;;;;;;;8.66;66.97;98541.91;4161618;28;20149;-72
2022/04/12 08:05:42;;;;;;;8.27;5.10;;;;;;;8.80;67.03;98538.66;4158448;28;20340;-72
2022/04/12 08:07:48;;;;;;;8.80;4.43;;;;;;;8.88;62.96;98535.66;4157690;28;20077;-72
2022/04/12 08:09:48;;;;;;;6.57;3.90;;;;;;;9.03;61.08;98531.22;4160151;28;20037;-72
2022/04/12 08:11:49;;;;;;;10.10;4.78;;;;;;;9.01;63.13;98536.28;4161421;28;20037;-72
2022/04/12 08:13:49;;;;;;;5.75;4.03;;;;;;;9.14;63.31;98534.97;4158639;28;20451;-71
2022/04/12 08:15:49;;;;;;;9.35;4.82;;;;;;;9.38;62.56;98531.03;4162824;28;20620;-71
2022/04/12 08:17:50;;;;;;;8.02;5.75;;;;;;;9.56;61.09;98540.41;4159396;28;20579;-72
2022/04/12 08:19:50;;;;;;;8.27;5.18;;;;;;;9.69;60.15;98534.72;4159153;28;20471;-71
2022/04/12 08:21:50;;;;;;;9.25;5.05;;;;;;;9.80;59.72;98538.41;4161136;28;20129;-72
2022/04/12 08:23:51;;;;;;;7.95;4.68;;;;;;;9.82;58.34;98545.16;4160415;28;20034;-72
2022/04/12 08:25:52;;;;;;;6.78;4.53;;;;;;;9.87;57.30;98533.00;4160770;28;20392;-72
2022/04/12 08:27:52;;;;;;;7.00;4.05;;;;;;;10.01;57.94;98544.28;4157789;28;20695;-72
2022/04/12 08:29:53;;;;;;;6.53;3.83;;;;;;;10.16;56.63;98544.47;4158197;28;20045;-72
2022/04/12 08:31:53;;;;;;;6.30;4.00;;;;;;;10.21;57.45;98547.72;4161807;28;20050;-72
2022/04/12 08:33:54;;;;;;;5.30;3.00;;;;;;;10.25;56.65;98536.72;4165062;28;20103;-72
2022/04/12 08:35:54;;;;;;;4.65;3.92;;;;;;;10.34;55.58;98526.16;4161410;28;20136;-72
2022/04/12 08:37:55;;;;;;;5.57;3.10;;;;;;;10.41;56.11;98524.28;4161553;28;20095;-72
2022/04/12 08:39:55;;;;;;;4.05;3.22;;;;;;;10.60;55.90;98533.63;4163958;28;20160;-72
2022/04/12 08:41:58;;;;;;;5.57;3.60;;;;;;;10.76;56.54;98534.22;4161475;28;20079;-72
2022/04/12 08:43:59;;;;;;;4.85;3.28;;;;;;;10.81;54.60;98531.09;4165663;28;20653;-72
2022/04/12 08:46:00;;;;;;;7.43;3.42;;;;;;;10.97;54.68;98528.91;4161221;28;20080;-72
2022/04/12 08:48:01;;;;;;;3.42;2.70;;;;;;;11.04;54.06;98524.63;4165796;28;20303;-72
2022/04/12 08:50:05;;;;;;;8.07;3.53;;;;;;;11.17;54.01;98531.47;4164422;28;20370;-72
2022/04/12 08:52:11;;;;;;;5.53;3.78;;;;;;;11.35;54.05;98537.22;4162503;28;20525;-72
2022/04/12 08:54:12;;;;;;;7.03;3.03;;;;;;;11.52;54.54;98536.56;4157838;28;20033;-72
2022/04/12 08:56:12;;;;;;;6.28;3.22;;;;;;;11.69;53.53;98540.66;4167121;28;20822;-72
2022/04/12 08:58:12;;;;;;;5.15;3.13;;;;;;;11.80;53.29;98536.81;4162165;28;20034;-72
2022/04/12 09:00:13;;;;;;;5.93;3.10;;;;;;;11.87;54.21;98530.53;4165741;28;20676;-72
2022/04/12 09:02:14;;;;;;;7.32;3.25;;;;;;;11.87;51.46;98535.28;4166688;28;20047;-72
2022/04/12 09:04:14;;;;;;;6.00;3.20;;;;;;;11.92;51.83;98529.38;4160106;28;20164;-72
2022/04/12 09:06:14;;;;;;;5.05;3.55;;;;;;;12.00;54.44;98531.03;4165623;28;20060;-72
2022/04/12 09:08:24;;;;;;;4.40;3.00;;;;;;;12.10;51.64;98538.63;4165108;28;20088;-72
2022/04/12 09:10:33;;;;;;;4.50;2.90;;;;;;;12.11;51.05;98531.88;4163803;28;20427;-72
2022/04/12 09:12:37;;;;;;;4.88;3.03;;;;;;;12.17;50.25;98532.31;4164479;28;20049;-72
2022/04/12 09:14:39;;;;;;;5.53;3.88;;;;;;;12.25;50.53;98529.19;4163087;28;20461;-72
2022/04/12 09:16:43;;;;;;;5.85;3.95;;;;;;;12.30;50.43;98533.56;4159528;28;20048;-72
2022/04/12 09:18:44;;;;;;;6.28;3.53;;;;;;;12.39;50.62;98525.69;4162618;28;20042;-72
2022/04/12 09:20:44;;;;;;;4.13;3.10;;;;;;;12.43;51.08;98523.75;4164929;28;20823;-72
2022/04/12 09:22:46;;;;;;;4.38;3.20;;;;;;;12.54;50.10;98535.69;4162611;28;20721;-72
2022/04/12 09:24:58;;;;;;;4.22;3.20;;;;;;;12.64;50.27;98526.59;4161960;28;20041;-72
2022/04/12 09:26:58;;;;;;;5.72;2.80;;;;;;;12.71;49.38;98528.59;4157276;28;20115;-72
2022/04/12 09:29:02;;;;;;;6.78;2.83;;;;;;;12.74;48.37;98529.78;4159018;28;20498;-72
2022/04/12 09:31:10;;;;;;;3.60;2.22;;;;;;;12.80;48.16;98528.22;4164967;28;20451;-72
2022/04/12 09:33:10;;;;;;;3.63;2.25;;;;;;;12.88;47.27;98522.31;4164479;28;20036;-72
2022/04/12 09:35:11;;;;;;;3.20;2.22;;;;;;;12.95;45.51;98527.09;4160486;28;20348;-72